Stoneybreak, Pennsylvania
Current Conditions -  °F | °C
As of 11:00 AM on Wednesday 26 Nov 2014 (Local Time) from KHGR Reporting Station
Light Snow Light Snow  
Wind Chill: 28°   Ceiling: 300
Heat Index: 34°   Visibility: 1.5mi
Dew Point: 32°   Wind: 7mph
Humidity: 92%   Direction: 350°N
Pressure: 30.05"   Gusts: NA
Location:  39.7745°N, 78.2026°W
Report Text: KHGR 261600Z 35006KT 1 1/2SM -SN BR OVC003 01/00 A3005 RMK AO2 P0001 T00110000
Loading
Personal Weather Stations






























Interactive Weather Map New forecast layout! Learn more

10-Day Weather Forecast

Advertisements
Track Severe Weather on mobile